Time;durP1;ratioP1;P1;durP2;ratioP2;P2;SDS_P1;SDS_P2;PMS_P1;PMS_P2;Temp;Humidity;BMP_temperature;BMP_pressure;BME280_temperature;BME280_humidity;BME280_pressure;Samples;Min_cycle;Max_cycle;Signal;HPM_P1;HPM_P2
2022/06/14 00:01:42;;;;;;;17.58;12.77;;;;;;;19.35;74.21;99223.31;5051262;28;20045;-72
2022/06/14 00:04:07;;;;;;;16.80;12.63;;;;;;;19.46;73.29;99218.47;5049692;28;20041;-72
2022/06/14 00:06:34;;;;;;;16.25;12.45;;;;;;;19.72;73.38;99227.00;5049247;28;20419;-72
2022/06/14 00:09:00;;;;;;;26.45;13.15;;;;;;;19.87;73.35;99228.66;5049990;28;20047;-72
2022/06/14 00:11:32;;;;;;;19.20;13.23;;;;;;;19.87;73.80;99222.16;5049793;28;20089;-72
2022/06/14 00:13:59;;;;;;;22.15;15.18;;;;;;;19.70;74.63;99218.09;5050590;28;20028;-73
2022/06/14 00:16:26;;;;;;;22.17;14.07;;;;;;;19.22;76.32;99223.69;5051163;28;20033;-72
2022/06/14 00:18:52;;;;;;;21.45;14.68;;;;;;;18.99;76.84;99220.31;5051091;28;20032;-73
2022/06/14 00:21:18;;;;;;;26.90;14.70;;;;;;;18.91;77.05;99237.28;5049200;28;20458;-72
2022/06/14 00:23:44;;;;;;;17.15;15.07;;;;;;;18.75;77.71;99233.97;5051064;28;20025;-72
2022/06/14 00:26:11;;;;;;;22.85;13.55;;;;;;;18.77;77.35;99232.38;5053004;28;20061;-72
2022/06/14 00:28:39;;;;;;;17.42;13.52;;;;;;;18.77;77.29;99220.22;5047320;28;20040;-73
2022/06/14 00:31:09;;;;;;;28.67;14.55;;;;;;;18.71;77.84;99221.84;5033145;28;20029;-72
2022/06/14 00:33:35;;;;;;;20.42;14.85;;;;;;;18.55;78.48;99231.44;5033404;28;20103;-72
2022/06/14 00:36:04;;;;;;;25.13;14.40;;;;;;;18.66;78.19;99226.66;5034499;28;20476;-72
2022/06/14 00:38:29;;;;;;;19.13;15.07;;;;;;;18.91;76.81;99223.13;5049576;28;20029;-72
2022/06/14 00:40:58;;;;;;;20.00;14.10;;;;;;;18.77;77.20;99223.06;5050840;28;20029;-73
2022/06/14 00:43:25;;;;;;;17.88;13.85;;;;;;;18.65;77.83;99225.03;5050528;28;20033;-72
2022/06/14 00:45:51;;;;;;;17.13;13.73;;;;;;;18.58;78.54;99233.50;5051610;28;20046;-72
2022/06/14 00:48:26;;;;;;;18.48;13.88;;;;;;;18.65;78.30;99227.84;5053898;28;20033;-73
2022/06/14 00:51:02;;;;;;;23.58;15.15;;;;;;;18.74;77.79;99219.00;5042121;28;20108;-72
2022/06/14 00:53:36;;;;;;;27.13;14.07;;;;;;;18.66;78.24;99220.97;5032906;28;20087;-72
2022/06/14 00:56:16;;;;;;;20.10;14.80;;;;;;;18.80;77.80;99220.25;5032766;28;20087;-73
2022/06/14 00:58:54;;;;;;;22.40;14.43;;;;;;;18.62;77.59;99208.81;5043835;28;20115;-72
2022/06/14 01:01:32;;;;;;;21.73;15.13;;;;;;;18.71;77.65;99219.78;5054029;28;20029;-72
2022/06/14 01:04:05;;;;;;;18.23;13.93;;;;;;;18.47;78.23;99213.59;5054194;28;20035;-72
2022/06/14 01:06:53;;;;;;;15.63;13.52;;;;;;;18.66;78.15;99220.19;5053133;28;20040;-73
2022/06/14 01:09:33;;;;;;;19.17;14.35;;;;;;;19.10;77.17;99226.06;5034095;28;20649;-72
2022/06/14 01:12:09;;;;;;;19.35;13.82;;;;;;;19.34;76.54;99235.88;5033817;28;20025;-73
2022/06/14 01:15:04;;;;;;;18.13;13.07;;;;;;;19.58;74.92;99228.63;5052295;28;20097;-72
2022/06/14 01:17:42;;;;;;;16.80;14.68;;;;;;;19.34;75.30;99227.38;5027157;28;20037;-72
2022/06/14 01:20:17;;;;;;;24.50;14.90;;;;;;;19.49;74.36;99229.00;5034079;28;20033;-72
2022/06/14 01:22:43;;;;;;;22.60;15.55;;;;;;;18.93;76.00;99232.03;5037452;28;20029;-72
2022/06/14 01:25:09;;;;;;;16.98;14.25;;;;;;;18.03;79.64;99225.81;5052319;28;20032;-72
2022/06/14 01:27:37;;;;;;;23.15;14.82;;;;;;;17.88;80.92;99233.34;5050905;28;20020;-73
2022/06/14 01:30:26;;;;;;;23.17;15.20;;;;;;;17.45;82.18;99228.91;5053848;28;20036;-72
2022/06/14 01:33:05;;;;;;;26.92;15.23;;;;;;;17.34;82.14;99202.53;5053496;28;20025;-72
2022/06/14 01:35:35;;;;;;;22.40;15.43;;;;;;;17.56;81.55;99223.38;5051226;28;20032;-72
2022/06/14 01:38:04;;;;;;;16.52;14.35;;;;;;;17.45;82.54;99231.72;5033385;28;20082;-72
2022/06/14 01:40:40;;;;;;;31.35;16.08;;;;;;;17.42;82.86;99237.34;5033880;28;20044;-72
2022/06/14 01:43:21;;;;;;;21.58;16.13;;;;;;;17.31;83.25;99238.03;5031967;28;20482;-72
2022/06/14 01:46:01;;;;;;;22.20;15.50;;;;;;;17.25;83.87;99231.13;5032005;28;20040;-73
2022/06/14 01:48:31;;;;;;;20.83;16.45;;;;;;;17.28;84.98;99246.50;5032082;28;20029;-72
2022/06/14 01:54:36;;;;;;;20.95;16.05;;;;;;;17.18;85.49;99247.97;5039833;28;20035;-72
2022/06/14 01:57:17;;;;;;;25.23;15.75;;;;;;;17.25;85.02;99240.41;5053081;28;20435;-72
2022/06/14 01:59:48;;;;;;;20.98;15.35;;;;;;;17.19;84.96;99243.94;5052241;28;20158;-72
2022/06/14 02:02:38;;;;;;;22.20;16.30;;;;;;;17.25;85.33;99251.72;5051663;28;20029;-73
2022/06/14 02:05:18;;;;;;;22.35;17.17;;;;;;;17.21;85.07;99244.41;5052959;28;20036;-72
2022/06/14 02:08:30;;;;;;;21.90;16.10;;;;;;;17.17;85.14;99235.88;5051741;28;20492;-72
2022/06/14 02:11:08;;;;;;;18.38;15.35;;;;;;;17.25;85.18;99243.25;5038023;28;20073;-72
2022/06/14 02:13:46;;;;;;;29.63;17.10;;;;;;;17.31;84.92;99240.06;5032876;28;20025;-72
2022/06/14 02:16:23;;;;;;;23.30;15.50;;;;;;;17.53;84.42;99256.06;5032599;28;20443;-72
2022/06/14 02:19:12;;;;;;;27.05;15.75;;;;;;;17.70;83.39;99256.63;5032629;28;20030;-72
2022/06/14 02:21:46;;;;;;;23.60;16.03;;;;;;;17.88;82.93;99256.00;5031180;28;20501;-72
2022/06/14 02:24:29;;;;;;;16.85;14.93;;;;;;;17.95;82.30;99253.22;5034346;28;20037;-73
2022/06/14 02:27:08;;;;;;;24.17;16.25;;;;;;;18.06;82.11;99247.69;5047076;28;20476;-71
2022/06/14 02:30:00;;;;;;;26.60;15.83;;;;;;;17.88;83.13;99251.13;5051849;28;20408;-72
2022/06/14 02:32:38;;;;;;;17.95;16.02;;;;;;;17.94;82.98;99252.41;5052388;28;20582;-72
2022/06/14 02:35:13;;;;;;;23.05;16.58;;;;;;;17.89;82.79;99247.09;5042844;28;20104;-72
2022/06/14 02:37:47;;;;;;;31.90;17.27;;;;;;;17.92;82.34;99251.16;5031267;28;20074;-72
2022/06/14 02:40:24;;;;;;;20.52;15.15;;;;;;;17.80;82.37;99244.59;5035701;28;20487;-73
2022/06/14 02:43:16;;;;;;;20.23;14.18;;;;;;;18.06;81.27;99259.00;5051214;28;20495;-72
2022/06/14 02:45:48;;;;;;;17.08;15.13;;;;;;;18.05;80.68;99263.84;5047570;28;20067;-72
2022/06/14 02:48:31;;;;;;;21.20;14.88;;;;;;;18.07;80.63;99250.09;5051757;28;20033;-72
2022/06/14 02:51:06;;;;;;;18.98;16.13;;;;;;;18.23;80.15;99266.03;5052130;28;20431;-72
2022/06/14 02:54:07;;;;;;;36.40;16.33;;;;;;;18.09;80.69;99267.50;5052040;28;20021;-73
2022/06/14 02:56:46;;;;;;;27.83;15.27;;;;;;;18.18;80.09;99261.53;5008764;28;20038;-72
2022/06/14 02:59:31;;;;;;;24.13;14.85;;;;;;;18.16;80.40;99258.28;5044331;28;20053;-72
2022/06/14 03:01:59;;;;;;;23.08;13.90;;;;;;;18.19;79.51;99265.16;5052016;28;20036;-72
2022/06/14 03:04:46;;;;;;;29.77;15.45;;;;;;;18.19;80.08;99260.31;5051833;28;20108;-73
2022/06/14 03:07:19;;;;;;;20.70;14.18;;;;;;;18.22;79.24;99259.53;5050588;28;20024;-72
2022/06/14 03:09:46;;;;;;;22.05;15.13;;;;;;;18.01;79.88;99254.50;5050186;28;20060;-72
2022/06/14 03:12:15;;;;;;;20.75;13.55;;;;;;;18.09;79.59;99261.03;5051539;28;20017;-72
2022/06/14 03:15:25;;;;;;;21.60;13.82;;;;;;;18.09;79.43;99261.84;5050394;28;20036;-72
2022/06/14 03:18:26;;;;;;;18.92;13.73;;;;;;;18.12;80.08;99254.59;5012910;28;20033;-72
2022/06/14 03:21:07;;;;;;;20.73;13.27;;;;;;;18.17;79.65;99257.06;5051683;28;20036;-73
2022/06/14 03:23:51;;;;;;;27.40;14.35;;;;;;;18.51;79.09;99256.91;5051576;28;20025;-73
2022/06/14 03:26:31;;;;;;;17.17;13.70;;;;;;;18.62;78.35;99256.97;5049954;28;20025;-72
2022/06/14 03:29:04;;;;;;;;;;;;;;;18.77;77.87;99257.88;5049928;28;20016;-71
2022/06/14 03:31:41;;;;;;;25.77;14.30;;;;;;;18.56;78.29;99244.38;5051825;28;19908;-72
2022/06/14 03:34:24;;;;;;;16.85;12.35;;;;;;;18.36;79.15;99243.84;5051670;28;20428;-72
2022/06/14 03:36:52;;;;;;;18.65;13.70;;;;;;;18.19;80.30;99242.50;5051629;28;20025;-72
2022/06/14 03:39:24;;;;;;;26.60;13.60;;;;;;;18.13;81.38;99261.88;5045968;28;20071;-72
2022/06/14 03:41:52;;;;;;;26.63;14.80;;;;;;;18.15;81.16;99265.13;5041113;28;20029;-71
2022/06/14 03:44:19;;;;;;;15.75;13.27;;;;;;;18.04;80.90;99250.91;5050480;28;20483;-71
2022/06/14 03:47:07;;;;;;;17.30;12.45;;;;;;;18.01;81.23;99251.66;5049626;28;20099;-72
2022/06/14 03:49:34;;;;;;;16.42;13.30;;;;;;;18.03;81.41;99254.94;5050188;28;20029;-72
2022/06/14 03:52:10;;;;;;;17.88;13.77;;;;;;;17.96;82.22;99247.16;5049974;28;20025;-72
2022/06/14 03:55:12;;;;;;;21.05;14.18;;;;;;;18.00;82.79;99261.34;5050671;28;20070;-72
2022/06/14 03:57:50;;;;;;;20.08;13.50;;;;;;;18.09;83.25;99264.66;5048814;28;20047;-72
2022/06/14 04:00:43;;;;;;;17.88;14.30;;;;;;;18.02;84.10;99270.25;5051749;28;20510;-71
2022/06/14 04:03:47;;;;;;;18.50;15.30;;;;;;;18.04;83.53;99265.03;5054926;28;20399;-72
2022/06/14 04:06:50;;;;;;;20.92;14.98;;;;;;;18.04;84.05;99267.88;5054175;28;20021;-72
2022/06/14 04:09:39;;;;;;;20.38;15.82;;;;;;;18.17;83.34;99261.91;5052055;28;20083;-72
2022/06/14 04:12:30;;;;;;;15.25;13.32;;;;;;;18.04;82.59;99262.22;5052948;28;20029;-72
2022/06/14 04:15:10;;;;;;;17.15;14.82;;;;;;;18.09;83.02;99261.84;5053432;28;20090;-72
2022/06/14 04:17:41;;;;;;;;;;;;;;;18.19;82.00;99259.50;5046878;28;20112;-72
2022/06/14 04:20:21;;;;;;;20.45;15.32;;;;;;;18.28;81.75;99268.47;5041710;28;19970;-72
2022/06/14 04:23:09;;;;;;;21.45;15.35;;;;;;;18.38;81.60;99272.59;5053007;28;20029;-71
2022/06/14 04:25:59;;;;;;;18.00;14.80;;;;;;;18.40;81.65;99263.69;5053990;28;20036;-73
2022/06/14 04:28:56;;;;;;;25.43;17.07;;;;;;;18.51;81.94;99270.25;5053049;28;20450;-72
2022/06/14 04:31:55;;;;;;;19.83;15.07;;;;;;;18.51;81.65;99270.25;5053776;28;20047;-72
2022/06/14 04:34:29;;;;;;;25.63;16.60;;;;;;;18.65;81.26;99278.84;5053788;28;20071;-72
2022/06/14 04:37:02;;;;;;;16.58;14.60;;;;;;;18.73;80.05;99270.41;5048448;28;20060;-72
2022/06/14 04:39:37;;;;;;;21.00;15.20;;;;;;;18.83;79.60;99275.31;5051595;28;20028;-72
2022/06/14 04:42:46;;;;;;;25.30;15.15;;;;;;;19.16;79.17;99275.50;5053056;28;20149;-72
2022/06/14 04:45:26;;;;;;;22.75;16.25;;;;;;;19.26;78.38;99273.91;5038487;28;20079;-71
2022/06/14 04:48:16;;;;;;;15.73;13.77;;;;;;;19.35;77.99;99282.84;5035520;28;20032;-72
2022/06/14 04:50:53;;;;;;;24.83;14.90;;;;;;;19.44;77.74;99279.63;5052139;28;20059;-72
2022/06/14 04:53:25;;;;;;;23.83;15.13;;;;;;;19.50;75.53;99286.56;5052015;28;20091;-72
2022/06/14 04:55:59;;;;;;;17.65;13.73;;;;;;;19.52;75.52;99286.13;5053409;28;20495;-72
2022/06/14 04:58:28;;;;;;;28.23;15.13;;;;;;;19.54;75.08;99281.69;5053002;28;20035;-72
2022/06/14 05:00:58;;;;;;;29.30;15.40;;;;;;;19.67;74.78;99290.66;5053361;28;20071;-71
2022/06/14 05:03:37;;;;;;;28.70;16.08;;;;;;;19.72;74.82;99297.94;5052910;28;20518;-70
2022/06/14 05:06:09;;;;;;;24.70;15.00;;;;;;;19.79;73.77;99289.44;5053908;28;20031;-71
2022/06/14 05:08:49;;;;;;;16.95;14.77;;;;;;;19.86;73.63;99294.31;5051824;28;20029;-71
2022/06/14 05:11:25;;;;;;;28.20;16.55;;;;;;;20.06;74.13;99297.63;5051646;28;20029;-70
2022/06/14 05:14:34;;;;;;;22.88;16.10;;;;;;;20.20;73.80;99299.66;5052340;28;20079;-71
2022/06/14 05:17:12;;;;;;;27.85;16.20;;;;;;;20.36;73.16;99301.28;5021293;28;20052;-70
2022/06/14 05:19:55;;;;;;;19.88;14.77;;;;;;;20.48;72.55;99298.03;5050508;28;20396;-70
2022/06/14 05:22:31;;;;;;;22.45;16.50;;;;;;;20.54;71.73;99302.09;5052060;28;20036;-70
2022/06/14 05:24:57;;;;;;;29.25;15.30;;;;;;;20.72;71.63;99293.53;5052660;28;20036;-70
2022/06/14 05:27:42;;;;;;;25.40;15.27;;;;;;;20.98;70.65;99299.16;5052996;28;20028;-71
2022/06/14 05:30:13;;;;;;;22.95;14.25;;;;;;;21.12;69.91;99293.47;5049480;28;20462;-72
2022/06/14 05:32:48;;;;;;;16.38;13.45;;;;;;;21.35;69.67;99285.66;5050967;28;20694;-72
2022/06/14 05:35:29;;;;;;;19.75;13.10;;;;;;;21.54;68.40;99290.84;5049360;28;20436;-72
2022/06/14 05:38:13;;;;;;;21.05;14.02;;;;;;;21.68;67.46;99301.34;5052271;28;20033;-73
2022/06/14 05:40:48;;;;;;;13.47;11.87;;;;;;;21.73;65.06;99298.06;5051430;28;20110;-71
2022/06/14 05:43:52;;;;;;;24.38;12.43;;;;;;;21.82;65.67;99306.16;5051470;28;20393;-72
2022/06/14 05:46:28;;;;;;;17.08;11.73;;;;;;;21.92;65.14;99297.97;5047072;28;20041;-72
2022/06/14 05:49:07;;;;;;;20.13;12.05;;;;;;;22.01;64.32;99293.41;5043904;28;20033;-72
2022/06/14 05:51:43;;;;;;;19.33;12.07;;;;;;;22.01;65.72;99295.44;5037587;28;20067;-71
2022/06/14 05:54:38;;;;;;;17.77;10.70;;;;;;;22.23;64.25;99301.78;5047256;28;20040;-70
2022/06/14 05:57:16;;;;;;;12.07;9.98;;;;;;;22.35;63.16;99305.38;5052959;28;20028;-70
2022/06/14 05:59:48;;;;;;;18.02;11.13;;;;;;;22.47;63.52;99310.53;5038139;28;20049;-70
2022/06/14 06:02:23;;;;;;;20.92;11.15;;;;;;;22.56;63.00;99298.69;5050307;28;20029;-69
2022/06/14 06:05:05;;;;;;;15.63;11.18;;;;;;;22.45;61.10;99304.47;5049702;28;20053;-69
2022/06/14 06:07:40;;;;;;;17.92;12.38;;;;;;;22.51;62.70;99305.66;5049588;28;20037;-70
2022/06/14 06:10:13;;;;;;;19.55;11.95;;;;;;;22.74;61.98;99312.75;5044968;28;20021;-70
2022/06/14 06:12:45;;;;;;;17.10;11.60;;;;;;;22.95;61.64;99308.88;5038162;28;21014;-69
2022/06/14 06:15:20;;;;;;;20.42;11.55;;;;;;;22.91;59.68;99307.28;5051221;28;20040;-71
2022/06/14 06:17:51;;;;;;;14.85;11.30;;;;;;;23.09;59.82;99322.16;5049594;28;20047;-69
2022/06/14 06:20:25;;;;;;;15.25;11.88;;;;;;;23.30;60.64;99314.63;5051988;28;20040;-70
2022/06/14 06:23:03;;;;;;;18.67;10.60;;;;;;;23.55;57.96;99313.50;5048256;28;20043;-70
2022/06/14 06:25:33;;;;;;;19.45;11.68;;;;;;;23.68;59.78;99310.84;5048881;28;20024;-68
2022/06/14 06:28:05;;;;;;;21.13;12.65;;;;;;;23.68;60.37;99316.56;5047764;28;20685;-72
2022/06/14 06:31:04;;;;;;;20.02;12.05;;;;;;;23.73;59.02;99310.41;5051441;28;20033;-71
2022/06/14 06:33:34;;;;;;;16.63;11.32;;;;;;;23.95;58.70;99313.75;5050214;28;20032;-72
2022/06/14 06:36:26;;;;;;;15.07;10.90;;;;;;;24.17;57.85;99312.63;5052554;28;20063;-72
2022/06/14 06:39:10;;;;;;;17.33;11.82;;;;;;;24.17;57.29;99313.44;5042765;28;20029;-72
2022/06/14 06:41:54;;;;;;;20.50;12.00;;;;;;;24.19;58.61;99316.66;5048940;28;20033;-72
2022/06/14 06:44:46;;;;;;;16.90;11.18;;;;;;;24.32;57.82;99316.06;5050897;28;20029;-72
2022/06/14 06:47:22;;;;;;;19.17;11.70;;;;;;;24.38;58.54;99314.34;5050532;28;20090;-72
2022/06/14 06:50:06;;;;;;;20.70;12.88;;;;;;;24.59;58.18;99315.19;5048287;28;20033;-72
2022/06/14 06:53:01;;;;;;;17.90;11.73;;;;;;;24.81;57.04;99307.88;5040755;28;20044;-71
2022/06/14 06:55:36;;;;;;;12.50;10.05;;;;;;;25.03;56.77;99301.75;5042132;28;20040;-72
2022/06/14 06:58:09;;;;;;;16.33;9.98;;;;;;;25.02;57.06;99310.75;5048802;28;20048;-71
2022/06/14 07:00:37;;;;;;;14.38;9.93;;;;;;;25.16;55.74;99304.78;5050953;28;20116;-71
2022/06/14 07:03:39;;;;;;;11.90;9.52;;;;;;;25.20;55.87;99298.94;5051298;28;20079;-71
2022/06/14 07:06:11;;;;;;;21.80;11.32;;;;;;;25.20;55.97;99296.09;5049464;28;20133;-71
2022/06/14 07:08:55;;;;;;;11.15;8.63;;;;;;;25.31;55.76;99285.22;5049244;28;20059;-70
2022/06/14 07:11:27;;;;;;;12.82;10.68;;;;;;;25.09;55.13;99277.09;5046684;28;20108;-73
2022/06/14 07:14:03;;;;;;;12.80;9.52;;;;;;;25.58;56.27;99309.25;5048096;28;20031;-72
2022/06/14 07:16:39;;;;;;;13.25;8.90;;;;;;;25.70;55.47;99304.88;5049353;28;20087;-71
2022/06/14 07:19:33;;;;;;;12.20;7.68;;;;;;;25.82;53.72;99307.06;5048364;28;20043;-71
2022/06/14 07:22:29;;;;;;;12.98;8.02;;;;;;;25.88;52.87;99299.56;5048958;28;20048;-71
2022/06/14 07:25:01;;;;;;;9.98;7.22;;;;;;;25.84;53.29;99295.97;5040139;28;20045;-70
2022/06/14 07:27:33;;;;;;;10.80;6.93;;;;;;;26.04;52.49;99303.69;5049054;28;20033;-71
2022/06/14 07:30:12;;;;;;;11.45;7.38;;;;;;;26.20;51.65;99306.63;5042603;28;20106;-71
2022/06/14 07:32:46;;;;;;;10.10;7.03;;;;;;;26.27;51.97;99307.69;5044628;28;20021;-71
2022/06/14 07:35:14;;;;;;;10.93;6.85;;;;;;;26.20;51.92;99306.63;5051835;28;20025;-73
2022/06/14 07:37:45;;;;;;;7.53;6.70;;;;;;;26.27;51.47;99296.22;5050024;28;20507;-72
2022/06/14 07:40:20;;;;;;;13.35;7.47;;;;;;;26.50;50.69;99309.56;5050545;28;20033;-72
2022/06/14 07:43:05;;;;;;;15.40;6.28;;;;;;;26.53;50.16;99302.94;5048749;28;20032;-72
2022/06/14 07:45:45;;;;;;;8.05;5.65;;;;;;;26.61;50.74;99301.50;5050304;28;20033;-72
2022/06/14 07:48:18;;;;;;;9.68;6.30;;;;;;;26.67;49.64;99304.63;5054099;28;20025;-71
2022/06/14 07:50:53;;;;;;;11.93;6.43;;;;;;;26.72;50.16;99306.13;5052704;28;20028;-71
2022/06/14 07:53:33;;;;;;;7.30;6.32;;;;;;;26.77;50.59;99303.50;5052440;28;20032;-72
2022/06/14 07:56:07;;;;;;;10.25;5.78;;;;;;;26.99;49.48;99302.94;5052548;28;20098;-72
2022/06/14 07:58:51;;;;;;;13.18;5.60;;;;;;;27.14;47.99;99296.81;5054282;28;20037;-73
2022/06/14 08:01:31;;;;;;;6.00;5.40;;;;;;;27.14;46.91;99300.50;5043685;28;20030;-72
2022/06/14 08:04:15;;;;;;;8.10;6.10;;;;;;;27.09;46.22;99300.25;5052641;28;20408;-73
2022/06/14 08:06:58;;;;;;;5.43;4.65;;;;;;;27.10;44.20;99298.97;5052373;28;20085;-72
2022/06/14 08:09:32;;;;;;;12.15;5.13;;;;;;;27.08;44.53;99290.03;5054631;28;20653;-73
2022/06/14 08:12:00;;;;;;;5.15;4.60;;;;;;;27.23;44.91;99293.28;5055193;28;20025;-73
2022/06/14 08:14:35;;;;;;;5.13;4.65;;;;;;;27.24;44.11;99307.16;5056640;28;20055;-72
2022/06/14 08:17:03;;;;;;;9.30;5.30;;;;;;;27.57;43.68;99300.50;5052302;28;20037;-72
2022/06/14 08:19:36;;;;;;;7.32;4.93;;;;;;;27.44;44.38;99300.47;5053956;28;20488;-72
2022/06/14 08:22:09;;;;;;;7.60;5.40;;;;;;;27.63;43.41;99298.69;5051709;28;20032;-75
2022/06/14 08:24:44;;;;;;;5.20;4.78;;;;;;;27.58;42.82;99294.31;5054431;28;20033;-73
2022/06/14 08:27:28;;;;;;;6.22;4.88;;;;;;;27.73;43.18;99291.00;5049238;28;20463;-74
2022/06/14 08:30:09;;;;;;;6.40;4.78;;;;;;;27.91;43.32;99293.28;5047840;28;20113;-72
2022/06/14 08:33:04;;;;;;;7.53;4.40;;;;;;;27.57;43.73;99286.97;5046274;28;20032;-75
2022/06/14 08:35:47;;;;;;;9.27;4.97;;;;;;;27.77;44.56;99288.81;5045689;28;20043;-74
2022/06/14 08:38:15;;;;;;;5.55;4.68;;;;;;;28.02;43.86;99298.72;5048340;28;20040;-76
2022/06/14 08:40:47;;;;;;;5.65;4.68;;;;;;;28.21;42.35;99291.16;5050734;28;20479;-72
2022/06/14 08:43:22;;;;;;;8.63;5.90;;;;;;;27.92;43.76;99289.16;5047001;28;20040;-72
2022/06/14 08:46:03;;;;;;;5.40;4.47;;;;;;;28.14;43.08;99283.53;5048004;28;20021;-73
2022/06/14 08:48:52;;;;;;;8.55;4.90;;;;;;;28.11;43.94;99290.19;5051832;28;20025;-77
2022/06/14 08:51:24;;;;;;;;;;;;;;;28.01;41.65;99294.25;5046625;28;20478;-78
2022/06/14 08:54:11;;;;;;;8.98;4.80;;;;;;;27.77;41.54;99291.69;5034121;28;19959;-75
2022/06/14 08:57:14;;;;;;;15.60;6.03;;;;;;;27.79;43.19;99292.03;5049718;28;20051;-76
2022/06/14 09:00:11;;;;;;;7.32;4.82;;;;;;;27.87;42.63;99281.13;5046653;28;20427;-76
2022/06/14 09:03:18;;;;;;;11.30;5.47;;;;;;;27.88;42.62;99272.06;5046804;28;20052;-75
2022/06/14 09:06:24;;;;;;;5.28;4.70;;;;;;;27.88;42.01;99277.81;5043530;28;20132;-74
2022/06/14 09:08:52;;;;;;;7.13;5.60;;;;;;;28.10;38.77;99282.03;5034960;28;20037;-74
2022/06/14 09:12:04;;;;;;;5.78;5.13;;;;;;;28.20;40.61;99265.72;5048039;28;20503;-75
2022/06/14 09:14:59;;;;;;;5.95;4.88;;;;;;;28.47;41.35;99270.16;4968753;28;20034;-74
2022/06/14 09:17:37;;;;;;;6.53;4.20;;;;;;;28.42;40.41;99275.22;5044825;28;20048;-74
2022/06/14 09:20:17;;;;;;;9.15;4.78;;;;;;;28.76;41.23;99266.28;5045744;28;20032;-75
2022/06/14 09:22:48;;;;;;;12.00;5.28;;;;;;;28.97;42.13;99262.66;5050042;28;20769;-75
2022/06/14 09:25:36;;;;;;;9.20;4.50;;;;;;;28.96;39.76;99261.06;5041128;28;20029;-75
2022/06/14 09:28:10;;;;;;;4.93;4.43;;;;;;;28.98;39.45;99266.31;5047979;28;20434;-76
2022/06/14 09:30:47;;;;;;;6.97;5.38;;;;;;;28.72;37.38;99258.59;5046215;28;20484;-76
2022/06/14 09:33:26;;;;;;;5.05;4.32;;;;;;;29.03;39.20;99248.47;5049089;28;20083;-76
2022/06/14 09:36:17;;;;;;;9.18;4.75;;;;;;;28.93;41.01;99221.66;5039261;28;20515;-75
2022/06/14 09:38:58;;;;;;;4.93;4.20;;;;;;;28.99;40.52;99248.59;5029839;28;20029;-75
2022/06/14 09:41:45;;;;;;;6.38;4.57;;;;;;;29.24;40.05;99252.59;5041012;28;20029;-76
2022/06/14 09:44:20;;;;;;;4.55;4.15;;;;;;;29.26;39.57;99252.94;5039720;28;20129;-76
2022/06/14 09:47:13;;;;;;;8.38;4.88;;;;;;;29.14;41.28;99233.66;5040851;28;20037;-75
2022/06/14 09:50:18;;;;;;;17.60;5.18;;;;;;;29.13;40.11;99218.44;5046322;28;20604;-76
2022/06/14 09:53:02;;;;;;;5.55;5.05;;;;;;;29.34;42.55;99241.16;5045054;28;20548;-77
2022/06/14 09:55:33;;;;;;;5.28;4.32;;;;;;;29.37;41.30;99237.31;5047892;28;20040;-76
2022/06/14 09:58:11;;;;;;;6.53;4.70;;;;;;;29.22;40.52;99231.31;5049460;28;20056;-76
2022/06/14 10:01:06;;;;;;;7.22;5.20;;;;;;;29.38;38.46;99233.97;5049528;28;20064;-76
2022/06/14 10:03:59;;;;;;;7.68;4.50;;;;;;;29.14;39.39;99227.91;5046774;28;20095;-75
2022/06/14 10:06:55;;;;;;;12.07;5.25;;;;;;;29.32;39.36;99226.41;5046448;28;20112;-76
2022/06/14 10:09:43;;;;;;;8.15;4.72;;;;;;;29.57;38.81;99228.31;5045810;28;20039;-76
2022/06/14 10:12:12;;;;;;;7.30;4.63;;;;;;;29.67;39.14;99234.94;5046880;28;20587;-76
2022/06/14 10:15:02;;;;;;;7.53;4.70;;;;;;;29.72;40.19;99224.88;5046953;28;20029;-76
2022/06/14 10:17:40;;;;;;;9.73;4.70;;;;;;;29.55;38.72;99225.13;5046938;28;20580;-77
2022/06/14 10:20:24;;;;;;;5.93;4.85;;;;;;;29.66;39.02;99219.72;5040770;28;20480;-77
2022/06/14 10:23:26;;;;;;;6.85;5.00;;;;;;;29.80;39.13;99215.44;5041842;28;20025;-77
2022/06/14 10:29:22;;;;;;;5.15;4.45;;;;;;;29.86;38.46;99217.72;5042006;28;20071;-77
2022/06/14 10:32:22;;;;;;;6.72;4.60;;;;;;;29.69;37.79;99246.81;5043813;28;20024;-76
2022/06/14 10:35:05;;;;;;;5.50;4.00;;;;;;;29.48;37.64;99237.72;5028397;28;20498;-77
2022/06/14 10:37:31;;;;;;;6.43;4.60;;;;;;;28.83;38.72;99222.88;5049065;28;20407;-77
2022/06/14 10:40:11;;;;;;;20.85;4.05;;;;;;;28.45;39.39;99213.13;5045358;28;20029;-76
2022/06/14 10:42:46;;;;;;;3.60;3.22;;;;;;;29.08;39.00;99203.84;5049687;28;20116;-76
2022/06/14 10:45:27;;;;;;;3.95;2.50;;;;;;;29.43;35.56;99203.75;5053024;28;20098;-77
2022/06/14 10:48:07;;;;;;;3.97;2.90;;;;;;;29.86;34.54;99197.53;5052975;28;20025;-76
2022/06/14 10:51:03;;;;;;;8.10;3.45;;;;;;;30.02;34.65;99194.38;5050822;28;20162;-73
2022/06/14 10:53:40;;;;;;;11.70;4.35;;;;;;;29.56;36.37;99195.03;5044521;28;20052;-74
2022/06/14 10:56:26;;;;;;;8.73;4.65;;;;;;;29.59;37.48;99187.53;5044882;28;20516;-74
2022/06/14 10:59:15;;;;;;;13.40;4.85;;;;;;;29.41;38.45;99209.97;5043343;28;20502;-76
2022/06/14 11:01:52;;;;;;;15.70;5.60;;;;;;;29.29;45.53;99214.53;5042951;28;20547;-75
2022/06/14 11:04:32;;;;;;;8.68;4.78;;;;;;;28.88;43.75;99207.91;5050152;28;20040;-74
2022/06/14 11:07:10;;;;;;;7.55;4.53;;;;;;;29.12;45.84;99216.06;5047553;28;20035;-76
2022/06/14 11:09:54;;;;;;;9.60;5.43;;;;;;;29.24;46.74;99206.53;5047616;28;20052;-74
2022/06/14 11:12:35;;;;;;;9.68;5.13;;;;;;;29.41;46.08;99212.06;5043977;28;20110;-75
2022/06/14 11:15:12;;;;;;;9.23;4.57;;;;;;;29.24;44.87;99205.72;5049597;28;20036;-76
2022/06/14 11:17:59;;;;;;;6.30;4.35;;;;;;;28.72;45.25;99217.50;5046755;28;20036;-75
2022/06/14 11:20:51;;;;;;;5.75;4.80;;;;;;;27.73;49.84;99220.00;5041780;28;20033;-77
2022/06/14 11:23:28;;;;;;;5.78;4.90;;;;;;;27.67;48.91;99215.28;5050284;28;20025;-74
2022/06/14 11:26:20;;;;;;;6.10;4.80;;;;;;;27.24;50.51;99206.72;5036742;28;20028;-74
2022/06/14 11:28:54;;;;;;;11.18;5.72;;;;;;;27.08;51.12;99209.66;5040959;28;20098;-74
2022/06/14 11:31:50;;;;;;;12.10;5.35;;;;;;;27.39;49.30;99212.81;5049189;28;20020;-78
2022/06/14 11:34:15;;;;;;;9.52;5.25;;;;;;;26.99;49.48;99205.41;5048955;28;20499;-75
2022/06/14 11:37:09;;;;;;;6.70;5.13;;;;;;;26.35;50.42;99205.94;5051233;28;20036;-74
2022/06/14 11:39:44;;;;;;;12.82;5.47;;;;;;;26.37;49.51;99202.59;5049361;28;20036;-73
2022/06/14 11:42:22;;;;;;;6.90;5.65;;;;;;;25.97;50.53;99192.16;5048748;28;20074;-75
2022/06/14 11:45:11;;;;;;;16.60;6.07;;;;;;;26.37;50.56;99203.41;5049838;28;20037;-76
2022/06/14 11:47:49;;;;;;;14.15;6.20;;;;;;;26.63;49.81;99215.81;5050774;28;20061;-78
2022/06/14 11:50:18;;;;;;;9.68;5.28;;;;;;;26.54;49.94;99227.13;5051005;28;20021;-78
2022/06/14 11:52:43;;;;;;;16.63;6.18;;;;;;;26.58;50.08;99227.03;5049360;28;20025;-79
2022/06/14 11:55:24;;;;;;;10.05;5.47;;;;;;;26.42;50.60;99239.31;5049750;28;20070;-78
2022/06/14 11:57:54;;;;;;;7.93;5.15;;;;;;;26.59;50.79;99222.91;5046255;28;20036;-78
2022/06/14 12:00:46;;;;;;;8.75;5.35;;;;;;;26.89;49.00;99229.47;5036682;28;20111;-78
2022/06/14 12:03:48;;;;;;;5.75;5.20;;;;;;;27.02;49.51;99233.16;5045070;28;20033;-78
2022/06/14 12:06:37;;;;;;;6.95;5.03;;;;;;;27.47;48.31;99239.25;5050693;28;20036;-77
2022/06/14 12:09:34;;;;;;;12.13;5.55;;;;;;;27.37;48.43;99223.16;5049771;28;20033;-78
2022/06/14 12:12:15;;;;;;;10.40;6.00;;;;;;;27.72;48.92;99229.06;5049650;28;20403;-79
2022/06/14 12:15:04;;;;;;;7.38;5.40;;;;;;;27.72;49.45;99224.13;5060362;28;20033;-79
2022/06/14 12:17:43;;;;;;;5.80;4.93;;;;;;;27.71;47.76;99227.44;5049777;28;20059;-79
2022/06/14 12:20:15;;;;;;;5.53;4.93;;;;;;;26.98;48.77;99225.94;5045851;28;20047;-80
2022/06/14 12:22:50;;;;;;;5.68;5.05;;;;;;;26.81;49.81;99216.56;5041117;28;20099;-77
2022/06/14 12:28:28;;;;;;;9.23;4.88;;;;;;;26.39;49.97;99202.97;5054515;28;20653;-78
2022/06/14 12:31:04;;;;;;;6.57;4.75;;;;;;;26.60;48.98;99202.34;5052576;28;20024;-79
2022/06/14 12:33:30;;;;;;;7.15;4.72;;;;;;;26.81;47.86;99207.97;5053176;28;20475;-79